sensor_id;sensor_type;location;lat;lon;timestamp;pressure;altitude;pressure_sealevel;temperature;humidity
56658;BME280;42530;52.240;19.354;2022-11-15T00:01:11;53181.88;;;-144.69;52.44
56658;BME280;42530;52.240;19.354;2022-11-15T00:03:39;53213.06;;;-144.69;52.50
56658;BME280;42530;52.240;19.354;2022-11-15T00:06:05;53177.72;;;-144.69;52.52
56658;BME280;42530;52.240;19.354;2022-11-15T00:08:31;53186.03;;;-144.69;52.74
56658;BME280;42530;52.240;19.354;2022-11-15T00:10:59;53198.50;;;-144.69;53.61
56658;BME280;42530;52.240;19.354;2022-11-15T00:13:25;53204.75;;;-144.69;52.84
56658;BME280;42530;52.240;19.354;2022-11-15T00:15:51;53225.56;;;-144.69;52.49
56658;BME280;42530;52.240;19.354;2022-11-15T00:18:17;53194.34;;;-144.69;52.37
56658;BME280;42530;52.240;19.354;2022-11-15T00:20:43;53173.53;;;-144.69;53.18
56658;BME280;42530;52.240;19.354;2022-11-15T00:23:09;53211.00;;;-144.69;52.60
56658;BME280;42530;52.240;19.354;2022-11-15T00:25:35;53204.75;;;-144.69;53.28
56658;BME280;42530;52.240;19.354;2022-11-15T00:34:44;53244.28;;;-144.69;52.29
56658;BME280;42530;52.240;19.354;2022-11-15T00:37:10;53208.91;;;-144.69;53.25
56658;BME280;42530;52.240;19.354;2022-11-15T00:39:35;53204.75;;;-144.69;53.93
56658;BME280;42530;52.240;19.354;2022-11-15T00:42:00;53206.84;;;-144.69;53.17
56658;BME280;42530;52.240;19.354;2022-11-15T00:44:26;53208.91;;;-144.69;53.10
56658;BME280;42530;52.240;19.354;2022-11-15T00:46:52;53200.59;;;-144.69;53.15
56658;BME280;42530;52.240;19.354;2022-11-15T00:49:17;53211.00;;;-144.69;52.79
56658;BME280;42530;52.240;19.354;2022-11-15T00:51:43;53158.97;;;-144.69;53.03
56658;BME280;42530;52.240;19.354;2022-11-15T00:54:08;53190.19;;;-144.69;52.85
56658;BME280;42530;52.240;19.354;2022-11-15T00:56:34;53206.84;;;-144.69;52.78
56658;BME280;42530;52.240;19.354;2022-11-15T00:58:59;53183.94;;;-144.69;52.35
56658;BME280;42530;52.240;19.354;2022-11-15T01:01:25;53238.03;;;-144.69;52.19
56658;BME280;42530;52.240;19.354;2022-11-15T01:03:51;53202.66;;;-144.69;52.61
56658;BME280;42530;52.240;19.354;2022-11-15T01:06:16;53175.63;;;-144.69;52.36
56658;BME280;42530;52.240;19.354;2022-11-15T01:08:42;53202.66;;;-144.69;52.43
56658;BME280;42530;52.240;19.354;2022-11-15T01:11:10;53198.50;;;-144.69;52.35
56658;BME280;42530;52.240;19.354;2022-11-15T01:13:38;53215.16;;;-144.69;52.54
56658;BME280;42530;52.240;19.354;2022-11-15T01:16:13;53200.59;;;-144.69;51.93
56658;BME280;42530;52.240;19.354;2022-11-15T01:18:39;53211.00;;;-144.69;51.77
56658;BME280;42530;52.240;19.354;2022-11-15T01:21:06;53177.72;;;-144.69;51.99
56658;BME280;42530;52.240;19.354;2022-11-15T01:23:32;53188.09;;;-144.69;52.45
56658;BME280;42530;52.240;19.354;2022-11-15T01:26:01;53183.94;;;-144.69;52.57
56658;BME280;42530;52.240;19.354;2022-11-15T01:28:31;53211.00;;;-144.69;52.24
56658;BME280;42530;52.240;19.354;2022-11-15T01:31:00;53196.44;;;-144.69;51.70
56658;BME280;42530;52.240;19.354;2022-11-15T01:33:27;53202.66;;;-144.69;52.20
56658;BME280;42530;52.240;19.354;2022-11-15T01:35:53;53179.78;;;-144.69;52.20
56658;BME280;42530;52.240;19.354;2022-11-15T01:38:19;53186.03;;;-144.69;52.16
56658;BME280;42530;52.240;19.354;2022-11-15T01:40:45;53167.31;;;-144.69;52.27
56658;BME280;42530;52.240;19.354;2022-11-15T01:43:24;53156.91;;;-144.69;52.32
56658;BME280;42530;52.240;19.354;2022-11-15T01:45:55;53190.19;;;-144.69;52.17
56658;BME280;42530;52.240;19.354;2022-11-15T01:48:27;53165.22;;;-144.69;53.04
56658;BME280;42530;52.240;19.354;2022-11-15T01:50:56;53194.34;;;-144.69;53.12
56658;BME280;42530;52.240;19.354;2022-11-15T01:53:23;53194.34;;;-144.69;52.63
56658;BME280;42530;52.240;19.354;2022-11-15T01:55:50;53192.28;;;-144.69;52.56
56658;BME280;42530;52.240;19.354;2022-11-15T01:58:15;53173.53;;;-144.69;52.74
56658;BME280;42530;52.240;19.354;2022-11-15T02:00:41;53177.72;;;-144.69;51.85
56658;BME280;42530;52.240;19.354;2022-11-15T02:03:07;53206.84;;;-144.69;51.35
56658;BME280;42530;52.240;19.354;2022-11-15T02:05:33;53204.75;;;-144.69;51.77
56658;BME280;42530;52.240;19.354;2022-11-15T02:08:00;53173.53;;;-144.69;52.19
56658;BME280;42530;52.240;19.354;2022-11-15T02:10:27;53181.88;;;-144.69;52.18
56658;BME280;42530;52.240;19.354;2022-11-15T02:12:54;53183.94;;;-144.69;52.16
56658;BME280;42530;52.240;19.354;2022-11-15T02:15:20;53186.03;;;-144.69;52.25
56658;BME280;42530;52.240;19.354;2022-11-15T02:20:47;53192.28;;;-144.69;52.57
56658;BME280;42530;52.240;19.354;2022-11-15T02:41:09;53181.88;;;-144.69;52.43
56658;BME280;42530;52.240;19.354;2022-11-15T02:43:37;53211.00;;;-144.69;52.25
56658;BME280;42530;52.240;19.354;2022-11-15T02:49:13;53175.63;;;-144.69;52.67
56658;BME280;42530;52.240;19.354;2022-11-15T02:51:41;53206.84;;;-144.69;52.11
56658;BME280;42530;52.240;19.354;2022-11-15T02:54:17;53206.84;;;-144.69;51.45
56658;BME280;42530;52.240;19.354;2022-11-15T02:56:45;53177.72;;;-144.69;52.75
56658;BME280;42530;52.240;19.354;2022-11-15T03:02:20;53196.44;;;-144.69;52.52
56658;BME280;42530;52.240;19.354;2022-11-15T03:04:58;53208.91;;;-144.69;51.84
56658;BME280;42530;52.240;19.354;2022-11-15T03:07:39;53194.34;;;-144.69;52.52
56658;BME280;42530;52.240;19.354;2022-11-15T03:10:17;53194.34;;;-144.69;52.36
56658;BME280;42530;52.240;19.354;2022-11-15T03:13:19;53206.84;;;-144.69;52.06
56658;BME280;42530;52.240;19.354;2022-11-15T03:15:56;53190.19;;;-144.69;52.10
56658;BME280;42530;52.240;19.354;2022-11-15T03:18:34;53198.50;;;-144.69;51.07
56658;BME280;42530;52.240;19.354;2022-11-15T03:21:04;53202.66;;;-144.69;50.94
56658;BME280;42530;52.240;19.354;2022-11-15T03:23:31;53192.28;;;-144.69;50.54
56658;BME280;42530;52.240;19.354;2022-11-15T03:25:59;53204.75;;;-144.69;50.29
56658;BME280;42530;52.240;19.354;2022-11-15T03:28:43;53219.31;;;-144.69;50.68
56658;BME280;42530;52.240;19.354;2022-11-15T03:31:13;53156.91;;;-144.69;50.97
56658;BME280;42530;52.240;19.354;2022-11-15T03:34:01;53223.47;;;-144.69;51.07
56658;BME280;42530;52.240;19.354;2022-11-15T03:36:32;53198.50;;;-144.69;51.84
56658;BME280;42530;52.240;19.354;2022-11-15T03:39:01;53211.00;;;-144.69;51.54
56658;BME280;42530;52.240;19.354;2022-11-15T03:44:32;53204.75;;;-144.69;51.45
56658;BME280;42530;52.240;19.354;2022-11-15T03:47:09;53202.66;;;-144.69;50.72
56658;BME280;42530;52.240;19.354;2022-11-15T03:49:40;53167.31;;;-144.69;51.40
56658;BME280;42530;52.240;19.354;2022-11-15T03:52:09;53183.94;;;-144.69;52.07
56658;BME280;42530;52.240;19.354;2022-11-15T03:54:36;53198.50;;;-144.69;51.83
56658;BME280;42530;52.240;19.354;2022-11-15T03:57:01;53215.16;;;-144.69;52.58
56658;BME280;42530;52.240;19.354;2022-11-15T03:59:27;53229.72;;;-144.69;51.54
56658;BME280;42530;52.240;19.354;2022-11-15T04:01:52;53227.63;;;-144.69;51.61
56658;BME280;42530;52.240;19.354;2022-11-15T04:04:18;53215.16;;;-144.69;52.54
56658;BME280;42530;52.240;19.354;2022-11-15T04:06:43;53208.91;;;-144.69;52.40
56658;BME280;42530;52.240;19.354;2022-11-15T04:09:09;53192.28;;;-144.69;52.12
56658;BME280;42530;52.240;19.354;2022-11-15T04:11:35;53179.78;;;-144.69;52.57
56658;BME280;42530;52.240;19.354;2022-11-15T04:14:00;53208.91;;;-144.69;52.66
56658;BME280;42530;52.240;19.354;2022-11-15T04:16:26;53235.97;;;-144.69;52.43
56658;BME280;42530;52.240;19.354;2022-11-15T04:18:51;53211.00;;;-144.69;51.70
56658;BME280;42530;52.240;19.354;2022-11-15T04:21:37;53190.19;;;-144.69;51.13
56658;BME280;42530;52.240;19.354;2022-11-15T04:24:21;53163.13;;;-144.69;51.65
56658;BME280;42530;52.240;19.354;2022-11-15T04:26:46;53165.22;;;-144.69;52.04
56658;BME280;42530;52.240;19.354;2022-11-15T04:29:12;53142.34;;;-144.69;52.29
56658;BME280;42530;52.240;19.354;2022-11-15T04:31:56;53242.19;;;-144.69;51.60
56658;BME280;42530;52.240;19.354;2022-11-15T04:34:21;53190.19;;;-144.69;51.30
56658;BME280;42530;52.240;19.354;2022-11-15T04:36:47;53200.59;;;-144.69;51.77
56658;BME280;42530;52.240;19.354;2022-11-15T04:39:31;53200.59;;;-144.69;51.97
56658;BME280;42530;52.240;19.354;2022-11-15T04:41:56;53221.41;;;-144.69;51.97
56658;BME280;42530;52.240;19.354;2022-11-15T04:44:22;53183.94;;;-144.69;51.80
56658;BME280;42530;52.240;19.354;2022-11-15T04:46:47;53200.59;;;-144.69;51.66
56658;BME280;42530;52.240;19.354;2022-11-15T04:49:13;53173.53;;;-144.69;52.57
56658;BME280;42530;52.240;19.354;2022-11-15T04:51:38;53206.84;;;-144.69;52.11
56658;BME280;42530;52.240;19.354;2022-11-15T04:54:04;53186.03;;;-144.69;53.06
56658;BME280;42530;52.240;19.354;2022-11-15T04:56:29;53194.34;;;-144.69;52.05
56658;BME280;42530;52.240;19.354;2022-11-15T04:58:54;53202.66;;;-144.69;52.25
56658;BME280;42530;52.240;19.354;2022-11-15T05:01:20;53198.50;;;-144.69;52.36
56658;BME280;42530;52.240;19.354;2022-11-15T05:03:45;53215.16;;;-144.69;51.51
56658;BME280;42530;52.240;19.354;2022-11-15T05:06:30;53211.00;;;-144.69;51.72
56658;BME280;42530;52.240;19.354;2022-11-15T05:08:55;53177.72;;;-144.69;52.50
56658;BME280;42530;52.240;19.354;2022-11-15T05:11:21;53163.13;;;-144.69;52.20
56658;BME280;42530;52.240;19.354;2022-11-15T05:13:47;53179.78;;;-144.69;51.94
56658;BME280;42530;52.240;19.354;2022-11-15T05:16:13;53211.00;;;-144.69;51.67
56658;BME280;42530;52.240;19.354;2022-11-15T05:18:38;53196.44;;;-144.69;51.82
56658;BME280;42530;52.240;19.354;2022-11-15T05:21:12;53173.53;;;-144.69;51.91
56658;BME280;42530;52.240;19.354;2022-11-15T05:23:38;53198.50;;;-144.69;52.20
56658;BME280;42530;52.240;19.354;2022-11-15T05:26:05;53181.88;;;-144.69;52.18
56658;BME280;42530;52.240;19.354;2022-11-15T05:28:32;53208.91;;;-144.69;51.60
56658;BME280;42530;52.240;19.354;2022-11-15T05:31:06;53190.19;;;-144.69;51.90
56658;BME280;42530;52.240;19.354;2022-11-15T05:33:32;53192.28;;;-144.69;52.72
56658;BME280;42530;52.240;19.354;2022-11-15T05:36:04;53169.38;;;-144.69;52.65
56658;BME280;42530;52.240;19.354;2022-11-15T05:38:31;53188.09;;;-144.69;52.82
56658;BME280;42530;52.240;19.354;2022-11-15T05:40:56;53223.47;;;-144.69;52.43
56658;BME280;42530;52.240;19.354;2022-11-15T05:43:22;53148.56;;;-144.69;52.64
56658;BME280;42530;52.240;19.354;2022-11-15T05:45:49;53211.00;;;-144.69;52.29
56658;BME280;42530;52.240;19.354;2022-11-15T05:48:15;53204.75;;;-144.69;52.21
56658;BME280;42530;52.240;19.354;2022-11-15T05:50:43;53186.03;;;-144.69;52.20
56658;BME280;42530;52.240;19.354;2022-11-15T05:53:12;53211.00;;;-144.69;52.13
56658;BME280;42530;52.240;19.354;2022-11-15T05:55:40;53227.63;;;-144.69;51.63
56658;BME280;42530;52.240;19.354;2022-11-15T05:58:06;53177.72;;;-144.69;51.98
56658;BME280;42530;52.240;19.354;2022-11-15T06:00:32;53167.31;;;-144.69;52.35
56658;BME280;42530;52.240;19.354;2022-11-15T06:02:58;53204.75;;;-144.69;53.29
56658;BME280;42530;52.240;19.354;2022-11-15T06:05:23;53206.84;;;-144.69;53.38
56658;BME280;42530;52.240;19.354;2022-11-15T06:07:49;53202.66;;;-144.69;53.09
56658;BME280;42530;52.240;19.354;2022-11-15T06:10:15;53223.47;;;-144.69;52.58
56658;BME280;42530;52.240;19.354;2022-11-15T06:12:40;53188.09;;;-144.69;51.97
56658;BME280;42530;52.240;19.354;2022-11-15T06:15:06;53213.06;;;-144.69;52.61
56658;BME280;42530;52.240;19.354;2022-11-15T06:17:32;53177.72;;;-144.69;51.86
56658;BME280;42530;52.240;19.354;2022-11-15T06:19:58;53208.91;;;-144.69;51.54
56658;BME280;42530;52.240;19.354;2022-11-15T06:22:23;53202.66;;;-144.69;52.62
56658;BME280;42530;52.240;19.354;2022-11-15T06:24:48;53177.72;;;-144.69;52.14
56658;BME280;42530;52.240;19.354;2022-11-15T06:27:14;53204.75;;;-144.69;51.90
56658;BME280;42530;52.240;19.354;2022-11-15T06:29:39;53204.75;;;-144.69;52.07
56658;BME280;42530;52.240;19.354;2022-11-15T06:32:05;53233.88;;;-144.69;52.01
56658;BME280;42530;52.240;19.354;2022-11-15T06:34:30;53248.44;;;-144.69;51.88
56658;BME280;42530;52.240;19.354;2022-11-15T06:36:56;53183.94;;;-144.69;52.28
56658;BME280;42530;52.240;19.354;2022-11-15T06:39:21;53208.91;;;-144.69;52.36
56658;BME280;42530;52.240;19.354;2022-11-15T06:41:47;53179.78;;;-144.69;52.06
56658;BME280;42530;52.240;19.354;2022-11-15T06:44:12;53229.72;;;-144.69;52.40
56658;BME280;42530;52.240;19.354;2022-11-15T06:46:38;53183.94;;;-144.69;51.28
56658;BME280;42530;52.240;19.354;2022-11-15T06:49:03;53186.03;;;-144.69;51.89
56658;BME280;42530;52.240;19.354;2022-11-15T06:51:29;53231.81;;;-144.69;51.33
56658;BME280;42530;52.240;19.354;2022-11-15T06:53:54;53186.03;;;-144.69;52.15
56658;BME280;42530;52.240;19.354;2022-11-15T06:56:20;53211.00;;;-144.69;51.36
56658;BME280;42530;52.240;19.354;2022-11-15T06:58:45;53206.84;;;-144.69;50.81
56658;BME280;42530;52.240;19.354;2022-11-15T07:01:12;53206.84;;;-144.69;50.47
56658;BME280;42530;52.240;19.354;2022-11-15T07:03:39;53227.63;;;-144.69;50.63
56658;BME280;42530;52.240;19.354;2022-11-15T07:06:06;53223.47;;;-144.69;51.17
56658;BME280;42530;52.240;19.354;2022-11-15T07:08:32;53186.03;;;-144.69;50.79
56658;BME280;42530;52.240;19.354;2022-11-15T07:10:59;53231.81;;;-144.69;50.41
56658;BME280;42530;52.240;19.354;2022-11-15T07:13:26;53213.06;;;-144.69;51.14
56658;BME280;42530;52.240;19.354;2022-11-15T07:15:51;53190.19;;;-144.69;51.40
56658;BME280;42530;52.240;19.354;2022-11-15T07:18:17;53198.50;;;-144.69;50.63
56658;BME280;42530;52.240;19.354;2022-11-15T07:20:43;53202.66;;;-144.69;51.38
56658;BME280;42530;52.240;19.354;2022-11-15T07:23:08;53186.03;;;-144.69;51.99
56658;BME280;42530;52.240;19.354;2022-11-15T07:25:33;53161.06;;;-144.69;51.30
56658;BME280;42530;52.240;19.354;2022-11-15T07:28:00;53202.66;;;-144.69;50.72
56658;BME280;42530;52.240;19.354;2022-11-15T07:30:26;53186.03;;;-144.69;50.65
56658;BME280;42530;52.240;19.354;2022-11-15T07:32:56;53161.06;;;-144.69;51.05
56658;BME280;42530;52.240;19.354;2022-11-15T07:35:22;53215.16;;;-144.69;51.41
56658;BME280;42530;52.240;19.354;2022-11-15T07:37:58;53177.72;;;-144.69;51.19
56658;BME280;42530;52.240;19.354;2022-11-15T07:40:24;53242.19;;;-144.69;49.70
56658;BME280;42530;52.240;19.354;2022-11-15T07:42:50;53190.19;;;-144.69;50.77
56658;BME280;42530;52.240;19.354;2022-11-15T07:45:20;53190.19;;;-144.69;51.12
56658;BME280;42530;52.240;19.354;2022-11-15T07:47:46;53223.47;;;-144.69;50.55
56658;BME280;42530;52.240;19.354;2022-11-15T07:50:12;53204.75;;;-144.69;50.03
56658;BME280;42530;52.240;19.354;2022-11-15T07:52:38;53202.66;;;-144.69;49.99
56658;BME280;42530;52.240;19.354;2022-11-15T07:55:03;53186.03;;;-144.69;51.15
56658;BME280;42530;52.240;19.354;2022-11-15T07:57:29;53186.03;;;-144.69;50.66
56658;BME280;42530;52.240;19.354;2022-11-15T07:59:55;53223.47;;;-144.69;51.50
56658;BME280;42530;52.240;19.354;2022-11-15T08:02:20;53190.19;;;-144.69;51.59
56658;BME280;42530;52.240;19.354;2022-11-15T08:04:46;53177.72;;;-144.69;50.46
56658;BME280;42530;52.240;19.354;2022-11-15T08:07:12;53200.59;;;-144.69;50.59
56658;BME280;42530;52.240;19.354;2022-11-15T08:09:37;53186.03;;;-144.69;50.73
56658;BME280;42530;52.240;19.354;2022-11-15T08:12:03;53215.16;;;-144.69;51.17
56658;BME280;42530;52.240;19.354;2022-11-15T08:14:29;53215.16;;;-144.69;49.60
56658;BME280;42530;52.240;19.354;2022-11-15T08:16:54;53192.28;;;-144.69;49.54
56658;BME280;42530;52.240;19.354;2022-11-15T08:19:20;53213.06;;;-144.69;49.13
56658;BME280;42530;52.240;19.354;2022-11-15T08:21:46;53194.34;;;-144.69;48.75
56658;BME280;42530;52.240;19.354;2022-11-15T08:24:11;53186.03;;;-144.69;49.51
56658;BME280;42530;52.240;19.354;2022-11-15T08:26:37;53211.00;;;-144.69;49.37
56658;BME280;42530;52.240;19.354;2022-11-15T08:29:03;53181.88;;;-144.69;49.20
56658;BME280;42530;52.240;19.354;2022-11-15T08:31:28;53167.31;;;-144.69;49.86
56658;BME280;42530;52.240;19.354;2022-11-15T08:33:54;53206.84;;;-144.69;49.70
56658;BME280;42530;52.240;19.354;2022-11-15T08:36:19;53221.41;;;-144.69;48.75
56658;BME280;42530;52.240;19.354;2022-11-15T08:38:45;53204.75;;;-144.69;48.50
56658;BME280;42530;52.240;19.354;2022-11-15T08:41:19;53198.50;;;-144.69;49.14
56658;BME280;42530;52.240;19.354;2022-11-15T08:43:49;53206.84;;;-144.69;50.02
56658;BME280;42530;52.240;19.354;2022-11-15T08:46:14;53231.81;;;-144.69;49.84
56658;BME280;42530;52.240;19.354;2022-11-15T08:48:40;53219.31;;;-144.69;49.89
56658;BME280;42530;52.240;19.354;2022-11-15T08:51:05;53204.75;;;-144.69;49.72
56658;BME280;42530;52.240;19.354;2022-11-15T08:53:34;53192.28;;;-144.69;49.75
56658;BME280;42530;52.240;19.354;2022-11-15T08:55:59;53221.41;;;-144.69;50.76
56658;BME280;42530;52.240;19.354;2022-11-15T08:58:25;53206.84;;;-144.69;49.67
56658;BME280;42530;52.240;19.354;2022-11-15T09:00:52;53200.59;;;-144.69;50.36
56658;BME280;42530;52.240;19.354;2022-11-15T09:03:17;53208.91;;;-144.69;50.80
56658;BME280;42530;52.240;19.354;2022-11-15T09:05:43;53211.00;;;-144.69;50.66
56658;BME280;42530;52.240;19.354;2022-11-15T09:08:09;53221.41;;;-144.69;49.98
56658;BME280;42530;52.240;19.354;2022-11-15T09:10:34;53233.88;;;-144.69;49.56
56658;BME280;42530;52.240;19.354;2022-11-15T09:12:59;53215.16;;;-144.69;49.20
56658;BME280;42530;52.240;19.354;2022-11-15T09:15:25;53186.03;;;-144.69;49.07
56658;BME280;42530;52.240;19.354;2022-11-15T09:17:51;53213.06;;;-144.69;48.48
56658;BME280;42530;52.240;19.354;2022-11-15T09:20:16;53215.16;;;-144.69;48.40
56658;BME280;42530;52.240;19.354;2022-11-15T09:22:42;53190.19;;;-144.69;48.07
56658;BME280;42530;52.240;19.354;2022-11-15T09:25:08;53227.63;;;-144.69;48.52
56658;BME280;42530;52.240;19.354;2022-11-15T09:27:33;53206.84;;;-144.69;48.84
56658;BME280;42530;52.240;19.354;2022-11-15T09:29:59;53190.19;;;-144.69;48.17
56658;BME280;42530;52.240;19.354;2022-11-15T09:32:28;53183.94;;;-144.69;48.38
56658;BME280;42530;52.240;19.354;2022-11-15T09:34:53;53233.88;;;-144.69;48.40
56658;BME280;42530;52.240;19.354;2022-11-15T09:37:19;53177.72;;;-144.69;48.04
56658;BME280;42530;52.240;19.354;2022-11-15T09:39:47;53190.19;;;-144.69;47.24
56658;BME280;42530;52.240;19.354;2022-11-15T09:50:42;53227.63;;;-144.69;47.37
56658;BME280;42530;52.240;19.354;2022-11-15T09:53:13;53248.44;;;-144.69;48.68
56658;BME280;42530;52.240;19.354;2022-11-15T09:55:55;53211.00;;;-144.69;47.74
56658;BME280;42530;52.240;19.354;2022-11-15T09:58:29;53231.81;;;-144.69;47.74
56658;BME280;42530;52.240;19.354;2022-11-15T10:01:00;53200.59;;;-144.69;47.38
56658;BME280;42530;52.240;19.354;2022-11-15T10:03:40;53188.09;;;-144.69;47.29
56658;BME280;42530;52.240;19.354;2022-11-15T10:06:14;53190.19;;;-144.69;47.05
56658;BME280;42530;52.240;19.354;2022-11-15T10:09:11;53213.06;;;-144.69;46.56
56658;BME280;42530;52.240;19.354;2022-11-15T10:11:37;53202.66;;;-144.69;48.18
56658;BME280;42530;52.240;19.354;2022-11-15T10:19:28;53206.84;;;-144.69;48.06
56658;BME280;42530;52.240;19.354;2022-11-15T10:24:51;53177.72;;;-144.69;47.97
56658;BME280;42530;52.240;19.354;2022-11-15T10:27:23;53175.63;;;-144.69;47.06
56658;BME280;42530;52.240;19.354;2022-11-15T10:29:50;53225.56;;;-144.69;46.31
56658;BME280;42530;52.240;19.354;2022-11-15T10:32:18;53190.19;;;-144.69;47.29
56658;BME280;42530;52.240;19.354;2022-11-15T10:34:44;53192.28;;;-144.69;47.01
56658;BME280;42530;52.240;19.354;2022-11-15T10:37:10;53196.44;;;-144.69;47.47
56658;BME280;42530;52.240;19.354;2022-11-15T10:39:36;53206.84;;;-144.69;46.99
56658;BME280;42530;52.240;19.354;2022-11-15T10:42:27;53231.81;;;-144.69;46.46
56658;BME280;42530;52.240;19.354;2022-11-15T10:44:54;53219.31;;;-144.69;47.61
56658;BME280;42530;52.240;19.354;2022-11-15T10:47:29;53231.81;;;-144.69;46.87
56658;BME280;42530;52.240;19.354;2022-11-15T10:50:31;53188.09;;;-144.69;46.16
56658;BME280;42530;52.240;19.354;2022-11-15T10:52:58;53196.44;;;-144.69;47.09
56658;BME280;42530;52.240;19.354;2022-11-15T10:55:30;53235.97;;;-144.69;47.40
56658;BME280;42530;52.240;19.354;2022-11-15T10:58:26;53188.09;;;-144.69;47.24
56658;BME280;42530;52.240;19.354;2022-11-15T11:00:54;53194.34;;;-144.69;46.15
56658;BME280;42530;52.240;19.354;2022-11-15T11:03:28;53173.53;;;-144.69;46.14
56658;BME280;42530;52.240;19.354;2022-11-15T11:08:33;53208.91;;;-144.69;46.36
56658;BME280;42530;52.240;19.354;2022-11-15T11:11:00;53194.34;;;-144.69;45.67
56658;BME280;42530;52.240;19.354;2022-11-15T11:13:36;53221.41;;;-144.69;45.50
56658;BME280;42530;52.240;19.354;2022-11-15T11:26:44;53177.72;;;-144.69;45.67
56658;BME280;42530;52.240;19.354;2022-11-15T11:35:13;53192.28;;;-144.69;45.60
56658;BME280;42530;52.240;19.354;2022-11-15T11:37:52;53204.75;;;-144.69;45.30
56658;BME280;42530;52.240;19.354;2022-11-15T11:40:35;53181.88;;;-144.69;45.19
56658;BME280;42530;52.240;19.354;2022-11-15T11:48:40;53198.50;;;-144.69;45.35
56658;BME280;42530;52.240;19.354;2022-11-15T11:51:18;53196.44;;;-144.69;45.89
56658;BME280;42530;52.240;19.354;2022-11-15T11:53:53;53144.41;;;-144.69;45.76
56658;BME280;42530;52.240;19.354;2022-11-15T11:56:27;53186.03;;;-144.69;45.42
56658;BME280;42530;52.240;19.354;2022-11-15T11:58:56;53186.03;;;-144.69;45.94
56658;BME280;42530;52.240;19.354;2022-11-15T12:01:35;53204.75;;;-144.69;46.24
56658;BME280;42530;52.240;19.354;2022-11-15T12:04:20;53208.91;;;-144.69;45.50
56658;BME280;42530;52.240;19.354;2022-11-15T12:09:30;53208.91;;;-144.69;45.73
56658;BME280;42530;52.240;19.354;2022-11-15T12:12:11;53188.09;;;-144.69;44.32
56658;BME280;42530;52.240;19.354;2022-11-15T12:14:51;53181.88;;;-144.69;45.49
56658;BME280;42530;52.240;19.354;2022-11-15T12:17:23;53169.38;;;-144.69;45.49
56658;BME280;42530;52.240;19.354;2022-11-15T12:19:49;53190.19;;;-144.69;46.28
56658;BME280;42530;52.240;19.354;2022-11-15T12:25:04;53169.38;;;-144.69;46.17
56658;BME280;42530;52.240;19.354;2022-11-15T12:27:43;53173.53;;;-144.69;46.19
56658;BME280;42530;52.240;19.354;2022-11-15T12:30:17;53215.16;;;-144.69;45.87
56658;BME280;42530;52.240;19.354;2022-11-15T12:32:53;53173.53;;;-144.69;45.35
56658;BME280;42530;52.240;19.354;2022-11-15T12:35:38;53211.00;;;-144.69;45.48
56658;BME280;42530;52.240;19.354;2022-11-15T12:38:10;53177.72;;;-144.69;45.84
56658;BME280;42530;52.240;19.354;2022-11-15T12:41:12;53206.84;;;-144.69;45.69
56658;BME280;42530;52.240;19.354;2022-11-15T12:43:40;53173.53;;;-144.69;46.41
56658;BME280;42530;52.240;19.354;2022-11-15T12:59:55;53171.47;;;-144.69;47.65
56658;BME280;42530;52.240;19.354;2022-11-15T13:02:40;53171.47;;;-144.69;47.45
56658;BME280;42530;52.240;19.354;2022-11-15T13:17:40;53190.19;;;-144.69;48.97
56658;BME280;42530;52.240;19.354;2022-11-15T13:28:01;53173.53;;;-144.69;49.45
56658;BME280;42530;52.240;19.354;2022-11-15T13:30:29;53169.38;;;-144.69;49.14
56658;BME280;42530;52.240;19.354;2022-11-15T13:32:56;53206.84;;;-144.69;48.84
56658;BME280;42530;52.240;19.354;2022-11-15T13:35:26;53238.03;;;-144.69;48.48
56658;BME280;42530;52.240;19.354;2022-11-15T13:37:54;53223.47;;;-144.69;48.68
56658;BME280;42530;52.240;19.354;2022-11-15T13:40:34;53213.06;;;-144.69;49.27
56658;BME280;42530;52.240;19.354;2022-11-15T13:43:17;53190.19;;;-144.69;49.27
56658;BME280;42530;52.240;19.354;2022-11-15T13:48:33;53181.88;;;-144.69;48.57
56658;BME280;42530;52.240;19.354;2022-11-15T13:51:00;53198.50;;;-144.69;49.11
56658;BME280;42530;52.240;19.354;2022-11-15T13:53:26;53190.19;;;-144.69;48.87
56658;BME280;42530;52.240;19.354;2022-11-15T13:55:55;53194.34;;;-144.69;49.93
56658;BME280;42530;52.240;19.354;2022-11-15T13:58:22;53192.28;;;-144.69;48.93
56658;BME280;42530;52.240;19.354;2022-11-15T14:00:47;53225.56;;;-144.69;49.31
56658;BME280;42530;52.240;19.354;2022-11-15T14:06:04;53177.72;;;-144.69;49.28
56658;BME280;42530;52.240;19.354;2022-11-15T14:08:31;53188.09;;;-144.69;49.20
56658;BME280;42530;52.240;19.354;2022-11-15T14:11:19;53211.00;;;-144.69;49.68
56658;BME280;42530;52.240;19.354;2022-11-15T14:16:38;53181.88;;;-144.69;49.59
56658;BME280;42530;52.240;19.354;2022-11-15T14:19:06;53190.19;;;-144.69;49.15
56658;BME280;42530;52.240;19.354;2022-11-15T14:21:32;53148.56;;;-144.69;48.92
56658;BME280;42530;52.240;19.354;2022-11-15T14:24:19;53223.47;;;-144.69;49.24
56658;BME280;42530;52.240;19.354;2022-11-15T14:26:46;53190.19;;;-144.69;49.64
56658;BME280;42530;52.240;19.354;2022-11-15T14:31:47;53161.06;;;-144.69;50.54
56658;BME280;42530;52.240;19.354;2022-11-15T14:34:13;53227.63;;;-144.69;49.61
56658;BME280;42530;52.240;19.354;2022-11-15T14:36:38;53196.44;;;-144.69;49.26
56658;BME280;42530;52.240;19.354;2022-11-15T14:39:04;53213.06;;;-144.69;49.38
56658;BME280;42530;52.240;19.354;2022-11-15T14:41:35;53173.53;;;-144.69;49.52
56658;BME280;42530;52.240;19.354;2022-11-15T14:44:03;53225.56;;;-144.69;49.95
56658;BME280;42530;52.240;19.354;2022-11-15T14:46:30;53177.72;;;-144.69;49.43
56658;BME280;42530;52.240;19.354;2022-11-15T14:48:55;53194.34;;;-144.69;49.40